Etusivu
METAR-TAF:

METAR-TAF

Lentoasemat :

Alexandria, Louisiana, Yhdysvallat

Leveyspiiri: 31-20-05N, Pituuspiiri: 092-33-31W, korkeus merenpinnasta: 27 m

Tämänhetkinen sää

Tämä raportti tehtiin 17 minuuttia sitten, kello 11.53 UTC
tyyntä
Lämpötila 2°C
Kosteus 100%
Ilmanpaine 1014 hPa
Näkyvyys: 11.3 km
Hajanaisia pilviä 4600 ft:n korkeudessa

METAR: KAEX 181153Z 00000KT 7SM SCT046 02/02 A2995 RMK AO2 SLP146 T00220017 10050 20017 55001

Aika: 06:10 (12:10 UTC)

Sääennuste

Tämä raportti tehtiin 50 minuuttia sitten, kello 11.20 UTC
Ennuste voimassa 18. päivästä klo 12 UTC - 19. päivään klo 12 UTC
Tuuli 3 kn eri suunnista
Näkyvyys: 10 km
selkeää
From 18. päivästä klo 1700 UTC
Tuuli 5 kn luoteesta
Näkyvyys: 10 km
Hajanaisia pilviä 25000 ft:n korkeudessa

TAF: KAEX 181120Z 1812/1912 VRB03KT P6SM SKC FM181700 31005KT P6SM SCT250

Säähavainnot ja -ennusteet yli 4000 lentoasemalta (METAR- ja TAF-raportit).

Käytössä olevat sääasemat on merkitty karttaan keltaisilla ja punaisilla pisteillä.

Aseta hiiri pisteen päälle nähdäksesi sääaseman nimen.

Klikkaa sitten nähdäksesi säähavainnot ja -ennusteet.

Kartan vaihtaminen: klikkaa mustalla rastilla varustettuja vihreitä pisteitä, niin voit zoomata sisään; viivalla varustettua vihreää pistettä, niin voit zoomata ulos tai vihreitä nuolia, niin pääset viereisille kartoille.


METAR-TAF: